createdAt,value
2017-08-12T00:00:41.632Z,26.40
2017-08-12T00:03:09.953Z,27.80
2017-08-12T00:05:37.491Z,26.83
2017-08-12T00:08:05.205Z,27.08
2017-08-12T00:10:33.925Z,26.42
2017-08-12T00:13:02.301Z,27.17
2017-08-12T00:15:30.646Z,26.45
2017-08-12T00:17:58.693Z,26.37
2017-08-12T00:20:26.683Z,26.40
2017-08-12T00:22:54.407Z,26.30
2017-08-12T00:25:22.816Z,27.75
2017-08-12T00:27:53.124Z,27.60
2017-08-12T00:30:20.662Z,26.83
2017-08-12T00:35:39.576Z,26.42
2017-08-12T00:38:07.729Z,27.85
2017-08-12T00:40:37.943Z,28.30
2017-08-12T00:43:08.801Z,29.90
2017-08-12T00:45:36.344Z,28.33
2017-08-12T00:48:05.869Z,28.00
2017-08-12T00:50:33.406Z,29.40
2017-08-12T00:53:01.353Z,28.55
2017-08-12T00:55:28.893Z,28.17
2017-08-12T00:57:57.473Z,29.10
2017-08-12T01:00:25.013Z,29.85
2017-08-12T01:02:52.554Z,29.02
2017-08-12T01:05:22.577Z,28.62
2017-08-12T01:07:50.168Z,26.75
2017-08-12T01:10:19.269Z,28.08
2017-08-12T01:12:47.099Z,28.10
2017-08-12T01:15:19.882Z,27.10
2017-08-12T01:17:48.188Z,25.73
2017-08-12T01:20:23.513Z,26.73
2017-08-12T01:22:51.060Z,27.50
2017-08-12T01:25:21.017Z,26.30
2017-08-12T01:27:49.905Z,27.75
2017-08-12T01:30:18.756Z,28.25
2017-08-12T01:32:47.000Z,30.52
2017-08-12T01:35:14.541Z,28.20
2017-08-12T01:37:48.888Z,29.12
2017-08-12T01:40:22.091Z,26.42
2017-08-12T01:42:50.077Z,25.12
2017-08-12T01:45:18.072Z,23.02
2017-08-12T01:47:46.848Z,23.55
2017-08-12T01:50:16.581Z,23.98
2017-08-12T01:52:44.929Z,23.15
2017-08-12T01:55:13.556Z,23.75
2017-08-12T01:57:42.502Z,25.98
2017-08-12T02:00:10.865Z,24.65
2017-08-12T02:02:38.419Z,26.85
2017-08-12T02:05:07.534Z,29.95
2017-08-12T02:07:36.394Z,27.60
2017-08-12T02:10:05.832Z,26.92
2017-08-12T02:12:33.700Z,26.42
2017-08-12T02:15:02.044Z,26.33
2017-08-12T02:17:30.848Z,25.37
2017-08-12T02:19:58.984Z,27.45
2017-08-12T02:22:28.437Z,28.15
2017-08-12T02:24:58.250Z,34.20
2017-08-12T02:27:27.666Z,26.67
2017-08-12T02:29:55.246Z,25.88
2017-08-12T02:32:23.621Z,27.33
2017-08-12T02:34:51.568Z,25.92
2017-08-12T02:37:19.111Z,27.05
2017-08-12T02:39:47.289Z,24.52
2017-08-12T02:42:16.334Z,25.40
2017-08-12T02:44:45.273Z,23.33
2017-08-12T02:47:14.953Z,28.55
2017-08-12T02:49:42.538Z,25.12
2017-08-12T02:52:11.993Z,26.10
2017-08-12T02:54:40.759Z,27.60
2017-08-12T02:57:08.297Z,26.50
2017-08-12T02:59:35.846Z,23.33
2017-08-12T03:02:03.862Z,26.15
2017-08-12T03:04:33.068Z,23.87
2017-08-12T03:07:02.310Z,25.85
2017-08-12T03:09:30.533Z,23.33
2017-08-12T03:12:01.930Z,23.67
2017-08-12T03:14:29.476Z,28.90
2017-08-12T03:16:57.130Z,22.92
2017-08-12T03:19:25.440Z,24.10
2017-08-12T03:21:55.134Z,22.85
2017-08-12T03:24:22.673Z,23.35
2017-08-12T03:26:51.850Z,23.65
2017-08-12T03:29:22.296Z,20.65
2017-08-12T03:31:50.320Z,19.45
2017-08-12T03:34:19.978Z,21.00
2017-08-12T03:36:48.358Z,19.70
2017-08-12T03:39:17.092Z,19.17
2017-08-12T03:41:45.237Z,15.88
2017-08-12T03:44:14.314Z,15.73
2017-08-12T03:46:41.902Z,15.30
2017-08-12T03:49:10.053Z,15.10
2017-08-12T03:51:39.566Z,12.65
2017-08-12T03:54:07.862Z,11.90
2017-08-12T03:56:36.897Z,11.32
2017-08-12T03:59:06.702Z,12.15
2017-08-12T04:01:34.237Z,11.25
2017-08-12T04:04:03.274Z,10.93
2017-08-12T04:06:30.902Z,11.02
2017-08-12T04:08:58.985Z,10.93
2017-08-12T04:11:28.451Z,10.65
2017-08-12T04:13:58.169Z,9.20
2017-08-12T04:16:28.749Z,10.13
2017-08-12T04:18:56.289Z,10.75
2017-08-12T04:21:25.066Z,9.85
2017-08-12T04:23:56.232Z,10.98
2017-08-12T04:26:26.119Z,11.10
2017-08-12T04:28:55.045Z,10.75
2017-08-12T04:31:25.224Z,11.30
2017-08-12T04:33:52.800Z,11.40
2017-08-12T04:36:20.851Z,10.80
2017-08-12T04:38:48.392Z,10.73
2017-08-12T04:41:17.512Z,10.45
2017-08-12T04:43:46.856Z,11.00
2017-08-12T04:46:14.901Z,11.10
2017-08-12T04:48:43.394Z,11.15
2017-08-12T04:51:11.408Z,11.07
2017-08-12T04:53:39.438Z,10.20
2017-08-12T04:56:08.236Z,10.20
2017-08-12T04:58:35.789Z,9.65
2017-08-12T05:01:08.777Z,9.30
2017-08-12T05:03:36.320Z,10.35
2017-08-12T05:06:03.857Z,10.15
2017-08-12T05:08:31.425Z,10.05
2017-08-12T05:11:08.853Z,9.60
2017-08-12T05:13:37.205Z,9.55
2017-08-12T05:16:04.742Z,9.90
2017-08-12T05:18:36.953Z,10.45
2017-08-12T05:21:04.514Z,9.98
2017-08-12T05:23:32.056Z,10.18
2017-08-12T05:26:02.766Z,10.85
2017-08-12T05:28:32.003Z,10.98
2017-08-12T05:31:00.447Z,10.85
2017-08-12T05:33:28.961Z,11.05
2017-08-12T05:35:56.598Z,11.15
2017-08-12T05:38:25.438Z,12.35
2017-08-12T05:40:53.025Z,12.68
2017-08-12T05:43:23.001Z,12.05
2017-08-12T05:45:51.690Z,126.78
2017-08-12T05:48:20.356Z,50.22
2017-08-12T05:50:48.336Z,46.22
2017-08-12T05:53:15.882Z,102.45
2017-08-12T05:55:44.633Z,199.07
2017-08-12T05:58:12.940Z,22.60
2017-08-12T06:00:40.485Z,17.45
2017-08-12T06:03:08.685Z,70.30
2017-08-12T06:05:36.262Z,16.08
2017-08-12T06:08:08.750Z,25.88
2017-08-12T06:10:37.174Z,19.42
2017-08-12T06:13:09.074Z,14.20
2017-08-12T06:15:36.928Z,15.15
2017-08-12T06:18:04.476Z,19.40
2017-08-12T06:20:33.275Z,18.37
2017-08-12T06:23:02.384Z,19.15
2017-08-12T06:25:30.810Z,22.02
2017-08-12T06:27:59.222Z,14.15
2017-08-12T06:30:26.783Z,14.02
2017-08-12T06:32:56.837Z,14.90
2017-08-12T06:35:24.719Z,19.87
2017-08-12T06:37:53.046Z,20.25
2017-08-12T06:40:23.930Z,18.90
2017-08-12T06:42:51.473Z,14.63
2017-08-12T06:45:19.062Z,19.83
2017-08-12T06:47:49.876Z,21.23
2017-08-12T06:50:19.226Z,25.42
2017-08-12T06:52:47.953Z,27.73
2017-08-12T06:55:20.225Z,18.25
2017-08-12T06:57:49.544Z,18.85
2017-08-12T07:00:19.609Z,23.75
2017-08-12T07:02:47.154Z,13.32
2017-08-12T07:05:14.696Z,21.65
2017-08-12T07:07:42.846Z,13.55
2017-08-12T07:10:12.893Z,16.77
2017-08-12T07:12:47.114Z,13.25
2017-08-12T07:15:14.692Z,16.77
2017-08-12T07:17:42.409Z,14.57
2017-08-12T07:20:09.965Z,12.90
2017-08-12T07:22:38.432Z,12.18
2017-08-12T07:25:07.012Z,13.95
2017-08-12T07:27:34.554Z,15.18
2017-08-12T07:30:02.919Z,13.35
2017-08-12T07:32:30.470Z,12.50
2017-08-12T07:34:59.317Z,12.98
2017-08-12T07:37:28.181Z,14.23
2017-08-12T07:39:55.730Z,12.90
2017-08-12T07:44:57.236Z,12.23
2017-08-12T07:47:24.782Z,12.55
2017-08-12T07:49:53.909Z,12.65
2017-08-12T07:52:21.867Z,12.73
2017-08-12T07:54:57.039Z,12.70
2017-08-12T07:57:28.404Z,13.95
2017-08-12T07:59:56.590Z,13.02
2017-08-12T08:02:24.565Z,13.00
2017-08-12T08:04:54.578Z,12.88
2017-08-12T08:07:23.094Z,12.55
2017-08-12T08:09:51.477Z,12.80
2017-08-12T08:12:19.405Z,12.30
2017-08-12T08:14:47.007Z,12.45
2017-08-12T08:17:18.571Z,11.93
2017-08-12T08:19:48.331Z,12.98
2017-08-12T08:22:22.025Z,12.95
2017-08-12T08:24:50.317Z,12.90
2017-08-12T08:27:18.043Z,12.13
2017-08-12T08:29:46.482Z,12.18
2017-08-12T08:32:16.752Z,11.90
2017-08-12T08:34:47.971Z,12.10
2017-08-12T08:37:15.579Z,12.68
2017-08-12T08:39:43.155Z,10.82
2017-08-12T08:42:10.803Z,10.60
2017-08-12T08:44:38.469Z,11.20
2017-08-12T08:47:06.614Z,11.10
2017-08-12T08:49:36.292Z,10.15
2017-08-12T08:52:06.689Z,9.07
2017-08-12T08:54:36.267Z,7.53
2017-08-12T08:57:04.580Z,6.35
2017-08-12T08:59:32.140Z,8.90
2017-08-12T09:02:01.985Z,7.50
2017-08-12T09:04:30.038Z,6.43
2017-08-12T09:07:04.385Z,7.15
2017-08-12T09:12:26.735Z,8.10
2017-08-12T09:14:54.275Z,5.30
2017-08-12T09:17:24.894Z,5.50
2017-08-12T09:19:52.435Z,5.22
2017-08-12T09:22:25.995Z,5.97
2017-08-12T09:24:53.571Z,5.10
2017-08-12T09:27:22.549Z,5.18
2017-08-12T09:29:53.943Z,5.40
2017-08-12T09:32:23.049Z,3.50
2017-08-12T09:34:52.834Z,3.67
2017-08-12T09:37:21.164Z,3.85
2017-08-12T09:39:49.591Z,3.90
2017-08-12T09:42:17.234Z,3.20
2017-08-12T09:44:47.811Z,3.35
2017-08-12T09:47:15.434Z,3.62
2017-08-12T09:49:45.434Z,3.20
2017-08-12T09:52:13.307Z,3.10
2017-08-12T09:54:45.679Z,3.60
2017-08-12T09:57:17.005Z,3.80
2017-08-12T09:59:47.169Z,3.70
2017-08-12T10:02:15.920Z,3.65
2017-08-12T10:04:44.813Z,4.05
2017-08-12T10:07:12.374Z,3.58
2017-08-12T10:09:41.670Z,3.78
2017-08-12T10:12:10.657Z,3.30
2017-08-12T10:14:38.971Z,3.70
2017-08-12T10:17:07.741Z,3.80
2017-08-12T10:19:36.004Z,4.30
2017-08-12T10:22:03.689Z,4.70
2017-08-12T10:24:33.281Z,4.57
2017-08-12T10:27:00.848Z,4.10
2017-08-12T10:29:28.812Z,3.85
2017-08-12T10:31:56.389Z,4.50
2017-08-12T10:34:25.154Z,3.90
2017-08-12T10:36:53.545Z,4.25
2017-08-12T10:39:21.153Z,3.40
2017-08-12T10:41:48.758Z,3.40
2017-08-12T10:44:17.397Z,3.70
2017-08-12T10:46:45.937Z,3.70
2017-08-12T10:49:13.469Z,3.78
2017-08-12T10:51:41.054Z,3.75
2017-08-12T10:54:08.588Z,3.20
2017-08-12T10:56:37.398Z,2.78
2017-08-12T10:59:05.551Z,2.95
2017-08-12T11:01:33.898Z,3.25
2017-08-12T11:04:02.270Z,3.10
2017-08-12T11:06:29.845Z,3.05
2017-08-12T11:08:57.445Z,2.90
2017-08-12T11:11:26.922Z,3.05
2017-08-12T11:13:56.622Z,3.00
2017-08-12T11:16:24.929Z,3.12
2017-08-12T11:18:53.733Z,3.42
2017-08-12T11:21:21.289Z,3.45
2017-08-12T11:23:48.894Z,3.05
2017-08-12T11:26:17.206Z,3.80
2017-08-12T11:28:46.226Z,3.83
2017-08-12T11:31:13.774Z,3.80
2017-08-12T11:33:41.588Z,3.92
2017-08-12T11:36:10.774Z,3.60
2017-08-12T11:38:39.944Z,3.85
2017-08-12T11:41:07.507Z,3.85
2017-08-12T11:43:38.245Z,4.10
2017-08-12T11:46:06.705Z,3.80
2017-08-12T11:48:35.110Z,5.62
2017-08-12T11:51:04.615Z,3.90
2017-08-12T11:53:32.152Z,4.57
2017-08-12T11:55:59.695Z,4.00
2017-08-12T11:58:27.903Z,4.12
2017-08-12T12:03:32.565Z,5.35
2017-08-12T12:06:00.153Z,5.50
2017-08-12T12:08:27.714Z,5.22
2017-08-12T12:10:56.863Z,4.57
2017-08-12T12:13:25.352Z,5.35
2017-08-12T12:15:56.377Z,6.12
2017-08-12T12:18:23.956Z,5.80
2017-08-12T12:20:53.214Z,5.85
2017-08-12T12:23:20.769Z,5.93
2017-08-12T12:25:48.362Z,5.72
2017-08-12T12:28:15.966Z,6.18
2017-08-12T12:30:44.371Z,6.65
2017-08-12T12:33:13.797Z,6.40
2017-08-12T12:35:42.002Z,7.28
2017-08-12T12:38:10.071Z,6.30
2017-08-12T12:40:39.447Z,7.12
2017-08-12T12:43:08.874Z,6.00
2017-08-12T12:45:37.165Z,6.62
2017-08-12T12:48:05.329Z,6.60
2017-08-12T12:50:33.658Z,6.80
2017-08-12T12:53:01.217Z,6.40
2017-08-12T12:55:28.802Z,7.50
2017-08-12T12:57:57.816Z,7.25
2017-08-12T13:00:25.358Z,7.60
2017-08-12T13:02:53.741Z,6.87
2017-08-12T13:05:21.474Z,8.35
2017-08-12T13:07:49.918Z,8.07
2017-08-12T13:10:17.653Z,8.23
2017-08-12T13:12:46.223Z,8.38
2017-08-12T13:17:56.728Z,8.38
2017-08-12T13:20:25.918Z,8.15
2017-08-12T13:22:55.210Z,8.05
2017-08-12T13:25:23.822Z,8.80
2017-08-12T13:27:54.230Z,9.10
2017-08-12T13:30:22.566Z,10.60
2017-08-12T13:32:51.734Z,12.30
2017-08-12T13:35:21.869Z,12.40
2017-08-12T13:37:50.632Z,10.90
2017-08-12T13:40:19.325Z,11.35
2017-08-12T13:42:46.873Z,12.30
2017-08-12T13:45:17.503Z,11.43
2017-08-12T13:47:45.937Z,11.85
2017-08-12T13:50:20.330Z,11.50
2017-08-12T13:52:48.362Z,11.43
2017-08-12T13:55:31.319Z,11.35
2017-08-12T13:58:00.769Z,12.50
2017-08-12T14:00:29.799Z,11.15
2017-08-12T14:02:58.693Z,10.02
2017-08-12T14:08:20.386Z,10.05
2017-08-12T14:10:50.019Z,9.95
2017-08-12T14:13:25.394Z,9.90
2017-08-12T14:15:58.027Z,10.68
2017-08-12T14:18:31.246Z,10.40
2017-08-12T14:21:00.369Z,10.32
2017-08-12T14:23:37.517Z,11.05
2017-08-12T14:26:40.293Z,10.18
2017-08-12T14:29:08.732Z,10.00
2017-08-12T14:34:27.652Z,11.02
2017-08-12T14:36:55.211Z,9.95
2017-08-12T14:39:22.812Z,10.23
2017-08-12T14:41:50.362Z,9.55
2017-08-12T14:44:17.969Z,10.07
2017-08-12T14:46:45.534Z,10.07
2017-08-12T14:49:14.767Z,11.43
2017-08-12T14:51:42.329Z,10.75
2017-08-12T14:54:09.899Z,11.57
2017-08-12T14:56:37.510Z,11.12
2017-08-12T14:59:05.107Z,11.27
2017-08-12T15:01:32.985Z,10.95
2017-08-12T15:04:00.566Z,10.70
2017-08-12T15:06:28.902Z,10.68
2017-08-12T15:08:56.786Z,10.57
2017-08-12T15:11:25.749Z,9.30
2017-08-12T15:13:53.727Z,8.90
2017-08-12T15:16:21.283Z,8.52
2017-08-12T15:18:48.838Z,8.38
2017-08-12T15:21:16.545Z,8.25
2017-08-12T15:23:44.425Z,7.60
2017-08-12T15:26:12.798Z,8.00
2017-08-12T15:28:40.359Z,8.45
2017-08-12T15:31:07.958Z,8.00
2017-08-12T15:33:35.539Z,7.50
2017-08-12T15:36:03.430Z,6.85
2017-08-12T15:38:31.000Z,6.68
2017-08-12T15:40:58.574Z,6.50
2017-08-12T15:43:26.727Z,6.25
2017-08-12T15:45:54.281Z,5.95
2017-08-12T15:48:21.852Z,5.72
2017-08-12T15:50:50.066Z,5.60
2017-08-12T15:53:17.630Z,5.70
2017-08-12T15:55:45.193Z,5.10
2017-08-12T15:58:12.858Z,4.72
2017-08-12T16:00:40.472Z,4.95
2017-08-12T16:03:08.083Z,4.70
2017-08-12T16:05:35.662Z,4.70
2017-08-12T16:08:03.255Z,4.97
2017-08-12T16:10:30.833Z,5.20
2017-08-12T16:12:58.500Z,5.25
2017-08-12T16:15:26.830Z,5.57
2017-08-12T16:17:54.426Z,5.03
2017-08-12T16:20:21.983Z,5.22
2017-08-12T16:22:49.844Z,5.37
2017-08-12T16:25:18.191Z,5.15
2017-08-12T16:27:45.805Z,4.85
2017-08-12T16:30:14.141Z,5.65
2017-08-12T16:32:41.793Z,7.53
2017-08-12T16:35:09.366Z,6.20
2017-08-12T16:37:36.981Z,8.32
2017-08-12T16:40:04.539Z,6.82
2017-08-12T16:42:32.190Z,6.35
2017-08-12T16:44:59.740Z,9.50
2017-08-12T16:47:27.312Z,9.35
2017-08-12T16:49:55.815Z,6.20
2017-08-12T16:52:23.378Z,6.43
2017-08-12T16:54:51.041Z,7.25
2017-08-12T16:57:18.614Z,10.10
2017-08-12T16:59:46.216Z,8.20
2017-08-12T17:02:13.795Z,8.00
2017-08-12T17:04:41.410Z,7.90
2017-08-12T17:07:08.974Z,7.72
2017-08-12T17:09:36.860Z,7.72
2017-08-12T17:12:04.524Z,7.45
2017-08-12T17:14:32.109Z,6.80
2017-08-12T17:16:59.673Z,6.85
2017-08-12T17:19:27.284Z,7.45
2017-08-12T17:21:54.882Z,6.57
2017-08-12T17:24:23.230Z,6.75
2017-08-12T17:26:51.021Z,7.78
2017-08-12T17:29:18.570Z,7.60
2017-08-12T17:31:46.443Z,7.82
2017-08-12T17:34:14.001Z,6.53
2017-08-12T17:36:42.334Z,8.25
2017-08-12T17:39:15.163Z,8.50
2017-08-12T17:41:42.720Z,7.97
2017-08-12T17:44:10.276Z,8.40
2017-08-12T17:46:43.170Z,8.05
2017-08-12T17:49:10.741Z,9.35
2017-08-12T17:51:39.067Z,9.40
2017-08-12T17:54:06.671Z,8.85
2017-08-12T17:56:34.283Z,9.57
2017-08-12T17:59:01.855Z,9.23
2017-08-12T18:01:29.473Z,9.25
2017-08-12T18:03:57.799Z,9.45
2017-08-12T18:06:25.350Z,9.00
2017-08-12T18:08:53.087Z,9.65
2017-08-12T18:11:20.885Z,10.13
2017-08-12T18:13:48.639Z,8.10
2017-08-12T18:16:16.206Z,7.60
2017-08-12T18:18:43.752Z,8.25
2017-08-12T18:21:11.365Z,7.12
2017-08-12T18:23:38.986Z,6.85
2017-08-12T18:26:06.560Z,7.10
2017-08-12T18:28:34.554Z,7.00
2017-08-12T18:31:02.106Z,6.97
2017-08-12T18:33:29.655Z,6.45
2017-08-12T18:35:57.643Z,6.35
2017-08-12T18:38:25.197Z,5.60
2017-08-12T18:40:52.778Z,5.65
2017-08-12T18:43:21.584Z,5.55
2017-08-12T18:45:49.925Z,5.65
2017-08-12T18:48:17.485Z,5.90
2017-08-12T18:50:49.458Z,5.60
2017-08-12T18:53:17.009Z,5.95
2017-08-12T18:55:44.958Z,6.40
2017-08-12T18:58:12.574Z,6.20
2017-08-12T19:00:40.895Z,6.45
2017-08-12T19:03:08.509Z,6.07
2017-08-12T19:05:36.184Z,5.60
2017-08-12T19:08:04.220Z,5.50
2017-08-12T19:10:31.875Z,5.47
2017-08-12T19:12:59.465Z,5.60
2017-08-12T19:15:27.874Z,4.90
2017-08-12T19:17:55.433Z,5.30
2017-08-12T19:20:23.342Z,5.70
2017-08-12T19:22:50.903Z,6.12
2017-08-12T19:25:18.451Z,5.95
2017-08-12T19:27:46.185Z,5.80
2017-08-12T19:30:13.770Z,5.95
2017-08-12T19:32:41.309Z,6.05
2017-08-12T19:35:08.905Z,5.22
2017-08-12T19:37:36.450Z,5.28
2017-08-12T19:40:04.033Z,4.90
2017-08-12T19:42:31.577Z,5.70
2017-08-12T19:44:59.302Z,5.07
2017-08-12T19:47:26.884Z,5.28
2017-08-12T19:49:54.425Z,5.37
2017-08-12T19:52:22.095Z,5.47
2017-08-12T19:54:50.510Z,4.80
2017-08-12T19:57:18.071Z,5.32
2017-08-12T19:59:45.658Z,5.95
2017-08-12T20:02:13.208Z,6.12
2017-08-12T20:04:40.946Z,6.43
2017-08-12T20:07:08.489Z,6.50
2017-08-12T20:09:36.079Z,6.07
2017-08-12T20:12:04.006Z,5.80
2017-08-12T20:14:31.722Z,4.95
2017-08-12T20:16:59.284Z,5.70
2017-08-12T20:19:26.842Z,5.35
2017-08-12T20:21:54.589Z,4.45
2017-08-12T20:24:22.276Z,4.40
2017-08-12T20:26:54.685Z,4.10
2017-08-12T20:29:22.303Z,4.15
2017-08-12T20:31:49.869Z,3.80
2017-08-12T20:34:17.485Z,3.67
2017-08-12T20:36:45.283Z,2.90
2017-08-12T20:39:12.837Z,3.20
2017-08-12T20:41:40.450Z,3.65
2017-08-12T20:44:08.079Z,3.12
2017-08-12T20:46:35.634Z,3.30
2017-08-12T20:49:03.211Z,3.03
2017-08-12T20:51:31.405Z,2.75
2017-08-12T20:53:58.972Z,3.10
2017-08-12T20:56:26.830Z,2.75
2017-08-12T20:58:54.414Z,3.25
2017-08-12T21:01:21.963Z,4.00
2017-08-12T21:03:49.957Z,3.75
2017-08-12T21:06:17.518Z,4.50
2017-08-12T21:08:45.106Z,5.12
2017-08-12T21:11:13.274Z,6.57
2017-08-12T21:13:40.869Z,6.32
2017-08-12T21:16:08.914Z,6.20
2017-08-12T21:18:36.475Z,6.20
2017-08-12T21:21:04.049Z,6.40
2017-08-12T21:23:31.661Z,6.15
2017-08-12T21:25:59.766Z,5.85
2017-08-12T21:28:27.373Z,6.55
2017-08-12T21:30:54.973Z,6.18
2017-08-12T21:33:22.585Z,6.43
2017-08-12T21:35:50.222Z,6.93
2017-08-12T21:38:17.817Z,7.00
2017-08-12T21:40:45.422Z,6.25
2017-08-12T21:43:13.001Z,6.80
2017-08-12T21:45:40.950Z,6.28
2017-08-12T21:48:08.535Z,6.07
2017-08-12T21:50:36.592Z,5.40
2017-08-12T21:53:04.210Z,6.12
2017-08-12T21:55:31.806Z,6.57
2017-08-12T21:57:59.479Z,5.93
2017-08-12T22:00:27.264Z,6.37
2017-08-12T22:02:54.914Z,6.75
2017-08-12T22:05:22.475Z,6.65
2017-08-12T22:07:50.099Z,6.87
2017-08-12T22:10:17.667Z,6.30
2017-08-12T22:12:45.660Z,6.80
2017-08-12T22:15:13.235Z,6.95
2017-08-12T22:17:40.885Z,6.97
2017-08-12T22:20:08.473Z,6.30
2017-08-12T22:22:36.117Z,6.93
2017-08-12T22:25:03.703Z,7.15
2017-08-12T22:27:31.293Z,6.93
2017-08-12T22:29:59.656Z,7.55
2017-08-12T22:32:27.365Z,7.37
2017-08-12T22:34:55.001Z,7.32
2017-08-12T22:37:22.604Z,7.40
2017-08-12T22:39:51.050Z,7.30
2017-08-12T22:42:18.798Z,7.85
2017-08-12T22:44:46.375Z,7.70
2017-08-12T22:47:14.031Z,8.70
2017-08-12T22:49:41.585Z,8.40
2017-08-12T22:52:09.458Z,9.23
2017-08-12T22:54:37.026Z,8.95
2017-08-12T22:57:04.995Z,9.32
2017-08-12T22:59:32.590Z,10.63
2017-08-12T23:02:01.363Z,10.32
2017-08-12T23:04:28.935Z,12.10
2017-08-12T23:06:56.494Z,11.57
2017-08-12T23:09:24.572Z,13.20
2017-08-12T23:11:52.312Z,13.75
2017-08-12T23:14:19.891Z,13.00
2017-08-12T23:16:47.515Z,13.90
2017-08-12T23:19:15.121Z,12.55
2017-08-12T23:21:43.854Z,13.88
2017-08-12T23:24:11.428Z,15.15
2017-08-12T23:26:38.994Z,14.90
2017-08-12T23:29:06.668Z,15.60
2017-08-12T23:31:34.321Z,15.52
2017-08-12T23:34:01.895Z,15.20
2017-08-12T23:36:29.543Z,13.50
2017-08-12T23:38:57.111Z,12.07
2017-08-12T23:41:24.755Z,12.40
2017-08-12T23:43:52.335Z,11.32
2017-08-12T23:46:19.930Z,10.98
2017-08-12T23:48:53.624Z,11.20
2017-08-12T23:51:21.993Z,11.82
2017-08-12T23:53:49.562Z,11.75
2017-08-12T23:56:17.691Z,12.10
2017-08-12T23:58:45.284Z,15.15
